createdAt,value
2018-07-11T00:03:03.737Z,4.43
2018-07-11T00:08:06.891Z,4.47
2018-07-11T00:13:10.029Z,4.90
2018-07-11T00:18:13.158Z,5.20
2018-07-11T00:23:16.301Z,4.73
2018-07-11T00:28:19.720Z,3.00
2018-07-11T00:33:22.856Z,4.60
2018-07-11T00:38:25.973Z,5.57
2018-07-11T00:43:30.940Z,6.17
2018-07-11T00:48:34.711Z,5.43
2018-07-11T00:53:37.793Z,6.47
2018-07-11T00:58:46.688Z,5.70
2018-07-11T01:03:50.312Z,4.00
2018-07-11T01:08:53.623Z,5.50
2018-07-11T01:13:56.756Z,5.60
2018-07-11T01:19:02.103Z,5.53
2018-07-11T01:24:05.205Z,5.33
2018-07-11T01:29:08.992Z,4.97
2018-07-11T01:34:12.091Z,5.70
2018-07-11T01:39:15.199Z,5.37
2018-07-11T01:44:18.317Z,5.93
2018-07-11T01:49:21.454Z,5.10
2018-07-11T01:54:24.675Z,5.13
2018-07-11T01:59:30.025Z,5.87
2018-07-11T02:04:34.588Z,5.00
2018-07-11T02:09:37.853Z,5.20
2018-07-11T02:14:40.982Z,4.60
2018-07-11T02:19:44.084Z,5.90
2018-07-11T02:24:47.209Z,5.83
2018-07-11T02:29:50.335Z,5.10
2018-07-11T02:34:53.480Z,5.60
2018-07-11T02:39:56.706Z,5.63
2018-07-11T02:44:59.930Z,5.60
2018-07-11T02:50:03.065Z,4.03
2018-07-11T02:55:06.379Z,5.60
2018-07-11T03:00:09.500Z,6.20
2018-07-11T03:05:12.630Z,5.20
2018-07-11T03:10:15.754Z,6.87
2018-07-11T03:15:18.879Z,6.63
2018-07-11T03:20:21.776Z,7.07
2018-07-11T03:25:24.895Z,6.10
2018-07-11T03:30:28.018Z,5.60
2018-07-11T03:35:31.196Z,7.93
2018-07-11T03:40:34.329Z,7.80
2018-07-11T03:45:37.462Z,10.23
2018-07-11T03:50:40.564Z,5.93
2018-07-11T03:55:43.677Z,7.60
2018-07-11T04:00:46.784Z,5.77
2018-07-11T04:05:50.405Z,9.10
2018-07-11T04:10:53.526Z,9.90
2018-07-11T04:15:56.640Z,10.60
2018-07-11T04:21:01.730Z,7.40
2018-07-11T04:26:04.846Z,9.63
2018-07-11T04:31:07.973Z,6.60
2018-07-11T04:36:11.080Z,10.97
2018-07-11T04:41:14.184Z,11.20
2018-07-11T04:46:17.497Z,9.20
2018-07-11T04:51:20.620Z,8.63
2018-07-11T04:56:23.928Z,7.17
2018-07-11T05:01:27.066Z,5.10
2018-07-11T05:06:30.168Z,4.00
2018-07-11T05:11:33.266Z,4.10
2018-07-11T05:16:36.392Z,4.73
2018-07-11T05:21:39.517Z,4.00
2018-07-11T05:26:42.790Z,4.60
2018-07-11T05:31:45.933Z,8.60
2018-07-11T05:36:49.056Z,9.90
2018-07-11T05:41:52.155Z,11.37
2018-07-11T05:47:00.887Z,9.83
2018-07-11T05:52:04.431Z,11.50
2018-07-11T05:57:07.591Z,11.83
2018-07-11T06:02:10.713Z,10.70
2018-07-11T06:07:13.818Z,13.50
2018-07-11T06:12:16.940Z,12.33
2018-07-11T06:17:20.304Z,14.10
2018-07-11T06:22:23.444Z,10.63
2018-07-11T06:27:26.586Z,12.60
2018-07-11T06:32:29.700Z,11.70
2018-07-11T06:37:32.832Z,14.27
2018-07-11T06:42:36.015Z,14.10
2018-07-11T06:47:39.139Z,12.57
2018-07-11T06:52:42.267Z,14.20
2018-07-11T06:57:45.395Z,14.17
2018-07-11T07:02:48.526Z,12.70
2018-07-11T07:07:52.001Z,15.20
2018-07-11T07:12:55.271Z,13.70
2018-07-11T07:17:58.387Z,13.30
2018-07-11T07:23:01.528Z,9.63
2018-07-11T07:28:04.649Z,7.47
2018-07-11T07:33:07.777Z,11.40
2018-07-11T07:38:10.923Z,10.10
2018-07-11T07:43:13.833Z,10.90
2018-07-11T07:48:16.986Z,10.17
2018-07-11T07:53:20.240Z,10.40
2018-07-11T07:58:23.694Z,11.03
2018-07-11T08:03:27.223Z,8.97
2018-07-11T08:08:30.360Z,9.97
2018-07-11T08:13:33.480Z,7.00
2018-07-11T08:18:36.836Z,6.87
2018-07-11T08:23:51.363Z,7.50
2018-07-11T08:31:37.965Z,6.20
2018-07-11T08:36:52.726Z,7.07
2018-07-11T08:42:36.145Z,5.90
2018-07-11T08:51:58.717Z,4.47
2018-07-11T08:57:12.160Z,5.20
2018-07-11T09:02:32.332Z,5.97
2018-07-11T09:07:46.976Z,5.10
2018-07-11T09:13:05.972Z,6.17
2018-07-11T09:20:29.540Z,4.73
2018-07-11T09:25:32.656Z,4.07
2018-07-11T09:30:35.814Z,5.10
2018-07-11T09:35:38.897Z,3.80
2018-07-11T09:40:42.035Z,4.20
2018-07-11T09:45:45.289Z,3.20
2018-07-11T09:50:48.980Z,3.40
2018-07-11T09:55:52.095Z,3.93
2018-07-11T10:01:00.532Z,3.77
2018-07-11T10:06:03.644Z,3.70
2018-07-11T10:11:06.876Z,3.87
2018-07-11T10:16:10.012Z,3.50
2018-07-11T10:21:13.114Z,3.63
2018-07-11T10:26:16.245Z,3.70
2018-07-11T10:31:19.374Z,4.80
2018-07-11T10:36:22.520Z,3.70
2018-07-11T10:41:25.640Z,3.80
2018-07-11T10:46:28.816Z,4.67
2018-07-11T10:51:31.717Z,3.87
2018-07-11T10:56:34.858Z,4.63
2018-07-11T11:01:38.097Z,4.40
2018-07-11T11:06:40.998Z,4.83
2018-07-11T11:11:44.119Z,5.73
2018-07-11T11:16:47.360Z,4.53
2018-07-11T11:21:50.305Z,4.30
2018-07-11T11:26:53.428Z,5.07
2018-07-11T11:31:56.617Z,4.20
2018-07-11T11:36:59.720Z,5.10
2018-07-11T11:42:02.939Z,3.73
2018-07-11T11:47:05.980Z,3.07
2018-07-11T11:52:09.079Z,3.10
2018-07-11T11:57:12.236Z,4.23
2018-07-11T12:02:15.377Z,3.83
2018-07-11T12:07:18.399Z,3.20
2018-07-11T12:12:21.565Z,4.20
2018-07-11T12:17:24.677Z,3.53
2018-07-11T12:22:27.821Z,3.30
2018-07-11T12:27:30.953Z,3.13
2018-07-11T12:32:33.873Z,3.40
2018-07-11T12:37:36.983Z,3.20
2018-07-11T12:42:40.104Z,3.93
2018-07-11T12:47:48.657Z,3.50
2018-07-11T12:52:51.892Z,4.00
2018-07-11T12:57:55.127Z,4.50
2018-07-11T13:02:58.275Z,4.57
2018-07-11T13:08:01.440Z,4.70
2018-07-11T13:13:04.825Z,4.10
2018-07-11T13:18:07.976Z,4.27
2018-07-11T13:23:11.108Z,4.97
2018-07-11T13:28:14.216Z,5.57
2018-07-11T13:33:18.182Z,5.40
2018-07-11T13:38:21.408Z,5.70
2018-07-11T13:43:24.688Z,5.83
2018-07-11T13:48:27.837Z,6.57
2018-07-11T13:53:31.024Z,6.73
2018-07-11T13:58:34.181Z,7.70
2018-07-11T14:03:37.321Z,7.70
2018-07-11T14:08:40.468Z,9.40
2018-07-11T14:13:43.664Z,9.30
2018-07-11T14:18:46.804Z,8.47
2018-07-11T14:23:49.958Z,6.33
2018-07-11T14:28:53.756Z,5.43
2018-07-11T14:33:59.539Z,6.13
2018-07-11T14:39:03.089Z,6.20
2018-07-11T14:44:06.197Z,6.07
2018-07-11T14:49:09.448Z,5.97
2018-07-11T14:54:12.887Z,6.80
2018-07-11T14:59:16.049Z,6.70
2018-07-11T15:04:19.396Z,8.10
2018-07-11T15:09:22.849Z,6.93
2018-07-11T15:14:25.672Z,8.10
2018-07-11T15:19:28.813Z,7.27
2018-07-11T15:24:32.665Z,6.10
2018-07-11T15:29:35.876Z,5.73
2018-07-11T15:34:39.226Z,6.00
2018-07-11T15:39:42.596Z,5.60
2018-07-11T15:44:45.708Z,4.77
2018-07-11T15:49:50.073Z,4.40
2018-07-11T15:54:56.377Z,5.17
2018-07-11T16:00:08.324Z,4.73
2018-07-11T16:05:15.374Z,5.97
2018-07-11T16:10:22.283Z,6.90
2018-07-11T16:15:25.412Z,7.03
2018-07-11T16:20:28.547Z,6.40
2018-07-11T16:25:31.735Z,6.23
2018-07-11T16:30:35.172Z,7.10
2018-07-11T16:35:38.423Z,6.20
2018-07-11T16:40:41.536Z,6.83
2018-07-11T16:45:44.888Z,6.27
2018-07-11T16:50:48.038Z,5.80
2018-07-11T16:55:51.465Z,5.80
2018-07-11T17:00:54.423Z,6.50
2018-07-11T17:06:04.664Z,6.00
2018-07-11T17:11:18.972Z,6.60
2018-07-11T17:16:31.403Z,4.80
2018-07-11T17:21:40.085Z,5.10
2018-07-11T17:26:45.253Z,5.47
2018-07-11T17:31:49.879Z,4.77
2018-07-11T17:36:57.927Z,6.23
2018-07-11T17:42:01.055Z,5.70
2018-07-11T17:47:03.952Z,5.40
2018-07-11T17:52:08.376Z,6.43
2018-07-11T17:57:20.151Z,6.83
2018-07-11T18:02:30.881Z,6.23
2018-07-11T18:07:40.579Z,5.50
2018-07-11T18:12:55.479Z,7.30
2018-07-11T18:18:09.240Z,6.87
2018-07-11T18:23:23.749Z,7.67
2018-07-11T18:28:35.100Z,8.77
2018-07-11T18:33:48.316Z,7.43
2018-07-11T18:38:53.880Z,7.23
2018-07-11T18:50:43.017Z,8.27
2018-07-11T18:55:57.393Z,9.27
2018-07-11T19:01:06.693Z,8.23
2018-07-11T19:06:22.793Z,9.70
2018-07-11T19:11:29.594Z,9.13
2018-07-11T19:18:53.277Z,8.57
2018-07-11T19:24:07.240Z,9.10
2018-07-11T19:29:16.807Z,7.50
2018-07-11T19:37:06.125Z,8.30
2018-07-11T19:44:27.712Z,8.30
2018-07-11T19:50:16.763Z,7.83
2018-07-11T19:55:31.904Z,7.77
2018-07-11T20:00:35.030Z,8.40
2018-07-11T20:05:38.144Z,9.00
2018-07-11T20:10:41.240Z,7.73
2018-07-11T20:16:47.603Z,7.90
2018-07-11T20:21:50.880Z,9.40
2018-07-11T20:26:53.989Z,8.70
2018-07-11T20:31:57.100Z,9.17
2018-07-11T20:37:00.474Z,9.23
2018-07-11T20:42:03.593Z,9.07
2018-07-11T20:47:06.803Z,8.27
2018-07-11T20:52:09.973Z,8.17
2018-07-11T20:57:13.115Z,9.07
2018-07-11T21:02:21.716Z,8.17
2018-07-11T21:07:36.586Z,8.27
2018-07-11T21:12:48.184Z,6.00
2018-07-11T21:19:02.214Z,7.47
2018-07-11T21:24:06.292Z,7.57
2018-07-11T21:29:09.655Z,8.13
2018-07-11T21:34:12.558Z,7.93
2018-07-11T21:39:15.692Z,8.00
2018-07-11T21:44:18.811Z,9.63
2018-07-11T21:49:22.281Z,9.90
2018-07-11T21:54:25.172Z,7.60
2018-07-11T21:59:29.384Z,10.23
2018-07-11T22:04:32.489Z,9.27
2018-07-11T22:09:35.617Z,9.80
2018-07-11T22:14:38.788Z,9.37
2018-07-11T22:19:41.273Z,9.80
2018-07-11T22:24:43.442Z,8.70
2018-07-11T22:29:45.632Z,9.67
2018-07-11T22:34:47.847Z,10.67
2018-07-11T22:39:50.832Z,9.53
2018-07-11T22:44:53.029Z,8.53
2018-07-11T22:50:02.163Z,10.03
2018-07-11T22:55:04.344Z,9.83
2018-07-11T23:00:06.564Z,10.00
2018-07-11T23:05:08.747Z,10.50
2018-07-11T23:10:10.929Z,10.40
2018-07-11T23:15:13.122Z,10.60
2018-07-11T23:20:15.318Z,11.10
2018-07-11T23:25:17.508Z,10.90
2018-07-11T23:30:19.687Z,7.20
2018-07-11T23:35:21.864Z,12.10
2018-07-11T23:40:24.060Z,12.17
2018-07-11T23:45:26.252Z,13.07
2018-07-11T23:50:28.428Z,13.63
2018-07-11T23:55:30.624Z,12.10
